»·PEaware :: N8295H KFAT-KVIS

N8295H :: KFAT-KVIS

FLIGHT INFORMATION

Flight Status: Arrived
Operator: Privately registered:
United States
More flights under this callsign
Pilot: Andrew R. (27652)
Aircraft: PIPER PA-28 CHEROKEE ARCHER
(P28A)
More flights by this aircraft type
Origin: KFAT Fresno Yosemite Intl
United States
Destination: KVIS Visalia Mun
United States
More flights between these airports :: More routes between these airports
Route: BULL3 VIS
File this flight plan on PilotEdge
Remarks:
Altitude:
(Current/Filed)
3,000ft
Speed:
(Current/Filed)
105kts
Departed: 24-Jun-21 07:45 PM
Arrived: 24-Jun-21 08:17 PM
Distance/Time
Traveled:
32nm/0:31
Distance/Time
To Go:
Arrived

Flight Plot

Page will automatically refresh every two minutes.

Flight plan parsing failed; only flown route is shown


Map Options




Map Legend


Flown Route
Filed Route
Departure Airport
Arrival Airport
Navaid (VOR, NDB)
Fix

Horizontal Profiles

Position Reports

Time Latitude Longitude Heading Altitude Ground
Speed
24-Jun-21 19:25 36.773446 -119.721021 306 336ft 0kts
24-Jun-21 19:26 36.773446 -119.721021 306 336ft 0kts
24-Jun-21 19:27 36.773446 -119.721021 306 336ft 0kts
24-Jun-21 19:28 36.773446 -119.721021 306 336ft 0kts
24-Jun-21 19:29 36.773446 -119.721021 306 336ft 0kts
24-Jun-21 19:30 36.773446 -119.721021 306 336ft 0kts
24-Jun-21 19:31 36.773446 -119.721021 306 336ft 0kts
24-Jun-21 19:32 36.773446 -119.721021 306 336ft 0kts
24-Jun-21 19:33 36.773446 -119.721021 306 336ft 0kts
24-Jun-21 19:34 36.773613 -119.721292 308 336ft 4kts
24-Jun-21 19:35 36.773367 -119.719712 127 336ft 10kts
24-Jun-21 19:36 36.772076 -119.716861 125 336ft 9kts
24-Jun-21 19:38 36.770575 -119.713071 127 336ft 15kts
24-Jun-21 19:39 36.769410 -119.710279 33 336ft 0kts
24-Jun-21 19:40 36.769410 -119.710279 33 336ft 0kts
24-Jun-21 19:41 36.769410 -119.710279 33 336ft 0kts
24-Jun-21 19:42 36.769410 -119.710279 33 336ft 0kts
24-Jun-21 19:43 36.769410 -119.710279 33 336ft 0kts
24-Jun-21 19:44 36.769768 -119.710427 319 336ft 6kts
24-Jun-21 19:45 36.772246 -119.713579 307 369ft 61kts
24-Jun-21 19:46 36.781859 -119.730886 309 1170ft 63kts
24-Jun-21 19:47 36.793772 -119.750023 309 1911ft 75kts
24-Jun-21 19:48 36.806174 -119.771148 309 2638ft 76kts
24-Jun-21 19:49 36.819838 -119.793626 310 2963ft 91kts
24-Jun-21 19:50 36.821690 -119.820367 202 2976ft 110kts
24-Jun-21 19:51 36.790211 -119.821134 182 2968ft 115kts
24-Jun-21 19:52 36.759029 -119.822404 184 3042ft 110kts
24-Jun-21 19:53 36.727915 -119.823844 179 3077ft 112kts
24-Jun-21 19:54 36.701075 -119.803368 139 3014ft 114kts
24-Jun-21 19:55 36.677210 -119.778944 137 3018ft 111kts
24-Jun-21 19:56 36.653769 -119.754496 141 3059ft 110kts
24-Jun-21 19:57 36.628195 -119.731976 145 2984ft 115kts
24-Jun-21 19:58 36.602862 -119.709166 141 2988ft 112kts
24-Jun-21 19:59 36.577885 -119.686190 139 2987ft 111kts
24-Jun-21 19:59 36.557279 -119.666703 138 2993ft 111kts
24-Jun-21 20:01 36.528506 -119.639329 143 3000ft 112kts
24-Jun-21 20:02 36.503647 -119.616258 139 2997ft 112kts
24-Jun-21 20:03 36.479763 -119.591694 138 3029ft 111kts
24-Jun-21 20:03 36.459204 -119.572106 140 3049ft 111kts
24-Jun-21 20:04 36.434393 -119.548038 140 3000ft 116kts
24-Jun-21 20:06 36.405733 -119.519696 137 3011ft 112kts
24-Jun-21 20:06 36.385382 -119.499529 138 3013ft 112kts
24-Jun-21 20:07 36.360036 -119.477196 167 2873ft 112kts
24-Jun-21 20:09 36.351967 -119.503481 304 2258ft 84kts
24-Jun-21 20:09 36.361725 -119.525274 314 1921ft 88kts
24-Jun-21 20:10 36.375266 -119.510804 109 1948ft 107kts
24-Jun-21 20:11 36.362759 -119.478081 111 1843ft 104kts
24-Jun-21 20:12 36.347801 -119.447380 112 1357ft 104kts
24-Jun-21 20:13 36.333052 -119.416014 110 890ft 106kts
24-Jun-21 20:14 36.313171 -119.395650 157 797ft 95kts
24-Jun-21 20:15 36.303277 -119.376151 346 693ft 54kts
24-Jun-21 20:16 36.314611 -119.387857 312 297ft 36kts
24-Jun-21 20:17 36.318305 -119.391148 41 297ft 0kts
24-Jun-21 20:18 36.319886 -119.392728 314 296ft 19kts

Navigation Log

Ident Type
Flight plan parsing failed, navigation log unavailable